sensor_id;sensor_type;location;lat;lon;timestamp;temperature;humidity
11214;DHT22;5664;48.606;13.456;2023-02-28T00:00:03;18.80;92.00
11214;DHT22;5664;48.606;13.456;2023-02-28T00:02:38;18.80;92.00
11214;DHT22;5664;48.606;13.456;2023-02-28T00:05:04;18.90;91.90
11214;DHT22;5664;48.606;13.456;2023-02-28T00:07:30;18.80;92.00
11214;DHT22;5664;48.606;13.456;2023-02-28T00:09:56;18.80;92.00
11214;DHT22;5664;48.606;13.456;2023-02-28T00:12:22;18.80;92.30
11214;DHT22;5664;48.606;13.456;2023-02-28T00:14:48;18.80;92.00
11214;DHT22;5664;48.606;13.456;2023-02-28T00:17:13;18.80;92.00
11214;DHT22;5664;48.606;13.456;2023-02-28T00:19:39;18.80;92.00
11214;DHT22;5664;48.606;13.456;2023-02-28T00:22:04;18.70;91.90
11214;DHT22;5664;48.606;13.456;2023-02-28T00:24:30;18.70;92.00
11214;DHT22;5664;48.606;13.456;2023-02-28T00:26:56;18.70;92.00
11214;DHT22;5664;48.606;13.456;2023-02-28T00:29:21;18.70;91.90
11214;DHT22;5664;48.606;13.456;2023-02-28T00:31:47;18.70;92.00
11214;DHT22;5664;48.606;13.456;2023-02-28T00:34:12;18.80;92.00
11214;DHT22;5664;48.606;13.456;2023-02-28T00:36:37;18.60;92.00
11214;DHT22;5664;48.606;13.456;2023-02-28T00:39:03;18.70;92.00
11214;DHT22;5664;48.606;13.456;2023-02-28T00:41:29;18.30;92.10
11214;DHT22;5664;48.606;13.456;2023-02-28T00:43:54;18.60;92.00
11214;DHT22;5664;48.606;13.456;2023-02-28T00:46:20;18.60;92.00
11214;DHT22;5664;48.606;13.456;2023-02-28T00:48:45;18.60;92.00
11214;DHT22;5664;48.606;13.456;2023-02-28T00:51:10;18.60;92.00
11214;DHT22;5664;48.606;13.456;2023-02-28T00:53:36;18.70;92.00
11214;DHT22;5664;48.606;13.456;2023-02-28T00:56:02;18.60;92.10
11214;DHT22;5664;48.606;13.456;2023-02-28T00:58:28;18.60;92.10
11214;DHT22;5664;48.606;13.456;2023-02-28T01:00:53;18.60;92.00
11214;DHT22;5664;48.606;13.456;2023-02-28T01:03:19;18.60;91.90
11214;DHT22;5664;48.606;13.456;2023-02-28T01:05:45;18.60;91.90
11214;DHT22;5664;48.606;13.456;2023-02-28T01:08:11;18.60;92.00
11214;DHT22;5664;48.606;13.456;2023-02-28T01:10:36;18.70;92.10
11214;DHT22;5664;48.606;13.456;2023-02-28T01:13:02;18.70;92.10
11214;DHT22;5664;48.606;13.456;2023-02-28T01:15:29;18.60;92.10
11214;DHT22;5664;48.606;13.456;2023-02-28T01:17:57;18.70;92.10
11214;DHT22;5664;48.606;13.456;2023-02-28T01:20:23;18.70;92.00
11214;DHT22;5664;48.606;13.456;2023-02-28T01:22:48;18.70;92.00
11214;DHT22;5664;48.606;13.456;2023-02-28T01:25:13;18.70;91.90
11214;DHT22;5664;48.606;13.456;2023-02-28T01:27:39;18.50;91.90
11214;DHT22;5664;48.606;13.456;2023-02-28T01:30:05;18.70;91.90
11214;DHT22;5664;48.606;13.456;2023-02-28T01:32:31;18.50;91.70
11214;DHT22;5664;48.606;13.456;2023-02-28T01:34:56;18.50;91.70
11214;DHT22;5664;48.606;13.456;2023-02-28T01:37:22;18.50;91.80
11214;DHT22;5664;48.606;13.456;2023-02-28T01:39:47;18.50;91.70
11214;DHT22;5664;48.606;13.456;2023-02-28T01:42:12;18.50;91.70
11214;DHT22;5664;48.606;13.456;2023-02-28T01:47:19;18.50;91.70
11214;DHT22;5664;48.606;13.456;2023-02-28T01:49:45;18.50;91.70
11214;DHT22;5664;48.606;13.456;2023-02-28T01:52:10;18.50;91.70
11214;DHT22;5664;48.606;13.456;2023-02-28T01:54:40;18.60;91.70
11214;DHT22;5664;48.606;13.456;2023-02-28T01:57:07;18.50;91.80
11214;DHT22;5664;48.606;13.456;2023-02-28T01:59:39;18.60;91.60
11214;DHT22;5664;48.606;13.456;2023-02-28T02:02:16;18.40;91.60
11214;DHT22;5664;48.606;13.456;2023-02-28T02:04:46;18.50;91.70
11214;DHT22;5664;48.606;13.456;2023-02-28T02:07:15;18.50;91.60
11214;DHT22;5664;48.606;13.456;2023-02-28T02:09:41;18.70;91.70
11214;DHT22;5664;48.606;13.456;2023-02-28T02:12:11;18.40;91.60
11214;DHT22;5664;48.606;13.456;2023-02-28T02:14:54;18.50;91.70
11214;DHT22;5664;48.606;13.456;2023-02-28T02:17:25;18.40;91.60
11214;DHT22;5664;48.606;13.456;2023-02-28T02:25:20;18.40;91.70
11214;DHT22;5664;48.606;13.456;2023-02-28T02:30:50;18.40;91.60
11214;DHT22;5664;48.606;13.456;2023-02-28T02:33:28;18.40;91.70
11214;DHT22;5664;48.606;13.456;2023-02-28T02:36:04;18.40;91.50
11214;DHT22;5664;48.606;13.456;2023-02-28T02:38:35;18.40;91.50
11214;DHT22;5664;48.606;13.456;2023-02-28T02:43:35;18.40;91.50
11214;DHT22;5664;48.606;13.456;2023-02-28T02:46:05;18.50;91.60
11214;DHT22;5664;48.606;13.456;2023-02-28T02:48:33;18.40;91.50
11214;DHT22;5664;48.606;13.456;2023-02-28T02:51:01;18.40;92.60
11214;DHT22;5664;48.606;13.456;2023-02-28T02:53:35;18.50;91.50
11214;DHT22;5664;48.606;13.456;2023-02-28T02:56:02;18.40;91.40
11214;DHT22;5664;48.606;13.456;2023-02-28T02:58:31;18.30;91.40
11214;DHT22;5664;48.606;13.456;2023-02-28T03:00:58;18.40;91.40
11214;DHT22;5664;48.606;13.456;2023-02-28T03:03:25;18.50;91.40
11214;DHT22;5664;48.606;13.456;2023-02-28T03:05:57;18.40;91.50
11214;DHT22;5664;48.606;13.456;2023-02-28T03:08:24;18.30;91.40
11214;DHT22;5664;48.606;13.456;2023-02-28T03:10:59;18.30;91.50
11214;DHT22;5664;48.606;13.456;2023-02-28T03:21:14;18.30;91.60
11214;DHT22;5664;48.606;13.456;2023-02-28T03:23:48;18.30;91.50
11214;DHT22;5664;48.606;13.456;2023-02-28T03:26:20;18.30;91.60
11214;DHT22;5664;48.606;13.456;2023-02-28T03:33:39;18.50;91.60
11214;DHT22;5664;48.606;13.456;2023-02-28T03:36:09;18.30;91.50
11214;DHT22;5664;48.606;13.456;2023-02-28T03:43:45;18.20;91.40
11214;DHT22;5664;48.606;13.456;2023-02-28T03:46:12;18.30;91.50
11214;DHT22;5664;48.606;13.456;2023-02-28T03:48:41;18.30;91.50
11214;DHT22;5664;48.606;13.456;2023-02-28T03:51:08;18.20;91.50
11214;DHT22;5664;48.606;13.456;2023-02-28T03:53:36;18.20;91.40
11214;DHT22;5664;48.606;13.456;2023-02-28T03:56:12;18.30;91.50
11214;DHT22;5664;48.606;13.456;2023-02-28T04:01:28;18.20;91.40
11214;DHT22;5664;48.606;13.456;2023-02-28T04:03:57;18.20;91.30
11214;DHT22;5664;48.606;13.456;2023-02-28T04:06:22;18.20;91.40
11214;DHT22;5664;48.606;13.456;2023-02-28T04:08:48;18.20;91.40
11214;DHT22;5664;48.606;13.456;2023-02-28T04:13:39;18.30;91.40
11214;DHT22;5664;48.606;13.456;2023-02-28T04:16:08;18.20;91.30
11214;DHT22;5664;48.606;13.456;2023-02-28T04:18:39;18.10;91.40
11214;DHT22;5664;48.606;13.456;2023-02-28T04:21:05;18.20;91.40
11214;DHT22;5664;48.606;13.456;2023-02-28T04:23:31;18.20;91.40
11214;DHT22;5664;48.606;13.456;2023-02-28T04:25:56;18.20;91.30
11214;DHT22;5664;48.606;13.456;2023-02-28T04:28:22;18.20;91.40
11214;DHT22;5664;48.606;13.456;2023-02-28T04:30:47;18.10;91.40
11214;DHT22;5664;48.606;13.456;2023-02-28T04:33:13;18.10;91.30
11214;DHT22;5664;48.606;13.456;2023-02-28T04:35:38;18.20;91.30
11214;DHT22;5664;48.606;13.456;2023-02-28T04:38:03;18.30;91.40
11214;DHT22;5664;48.606;13.456;2023-02-28T04:40:29;18.20;91.40
11214;DHT22;5664;48.606;13.456;2023-02-28T04:42:54;18.20;91.50
11214;DHT22;5664;48.606;13.456;2023-02-28T04:45:20;18.10;91.40
11214;DHT22;5664;48.606;13.456;2023-02-28T04:47:45;18.10;91.20
11214;DHT22;5664;48.606;13.456;2023-02-28T04:50:11;18.10;91.30
11214;DHT22;5664;48.606;13.456;2023-02-28T04:52:36;18.20;91.40
11214;DHT22;5664;48.606;13.456;2023-02-28T04:55:02;18.00;91.30
11214;DHT22;5664;48.606;13.456;2023-02-28T04:57:27;18.00;92.40
11214;DHT22;5664;48.606;13.456;2023-02-28T04:59:53;18.00;91.30
11214;DHT22;5664;48.606;13.456;2023-02-28T05:02:18;18.00;91.30
11214;DHT22;5664;48.606;13.456;2023-02-28T05:04:45;18.00;91.50
11214;DHT22;5664;48.606;13.456;2023-02-28T05:07:10;18.10;91.50
11214;DHT22;5664;48.606;13.456;2023-02-28T05:09:36;18.00;91.50
11214;DHT22;5664;48.606;13.456;2023-02-28T05:12:01;18.00;91.60
11214;DHT22;5664;48.606;13.456;2023-02-28T05:14:27;18.00;91.70
11214;DHT22;5664;48.606;13.456;2023-02-28T05:16:52;18.00;91.80
11214;DHT22;5664;48.606;13.456;2023-02-28T05:19:18;18.00;91.90
11214;DHT22;5664;48.606;13.456;2023-02-28T05:21:50;18.10;92.00
11214;DHT22;5664;48.606;13.456;2023-02-28T05:24:16;17.90;92.00
11214;DHT22;5664;48.606;13.456;2023-02-28T05:26:48;18.00;92.20
11214;DHT22;5664;48.606;13.456;2023-02-28T05:29:14;17.90;92.20
11214;DHT22;5664;48.606;13.456;2023-02-28T05:31:39;17.90;92.20
11214;DHT22;5664;48.606;13.456;2023-02-28T05:34:05;17.80;92.30
11214;DHT22;5664;48.606;13.456;2023-02-28T05:36:31;17.80;92.30
11214;DHT22;5664;48.606;13.456;2023-02-28T05:38:56;18.00;92.40
11214;DHT22;5664;48.606;13.456;2023-02-28T05:41:22;17.90;92.40
11214;DHT22;5664;48.606;13.456;2023-02-28T05:43:47;17.90;92.50
11214;DHT22;5664;48.606;13.456;2023-02-28T05:46:13;17.90;92.60
11214;DHT22;5664;48.606;13.456;2023-02-28T05:48:41;18.00;92.50
11214;DHT22;5664;48.606;13.456;2023-02-28T05:51:07;17.90;92.50
11214;DHT22;5664;48.606;13.456;2023-02-28T05:53:33;17.70;92.50
11214;DHT22;5664;48.606;13.456;2023-02-28T05:55:59;17.70;92.50
11214;DHT22;5664;48.606;13.456;2023-02-28T05:58:24;17.80;92.60
11214;DHT22;5664;48.606;13.456;2023-02-28T06:00:57;17.70;92.60
11214;DHT22;5664;48.606;13.456;2023-02-28T06:03:22;17.80;92.70
11214;DHT22;5664;48.606;13.456;2023-02-28T06:05:47;17.90;92.70
11214;DHT22;5664;48.606;13.456;2023-02-28T06:08:13;17.80;92.70
11214;DHT22;5664;48.606;13.456;2023-02-28T06:10:38;17.70;92.50
11214;DHT22;5664;48.606;13.456;2023-02-28T06:13:04;17.60;92.60
11214;DHT22;5664;48.606;13.456;2023-02-28T06:15:30;17.80;92.60
11214;DHT22;5664;48.606;13.456;2023-02-28T06:17:55;17.80;92.60
11214;DHT22;5664;48.606;13.456;2023-02-28T06:20:22;17.70;92.60
11214;DHT22;5664;48.606;13.456;2023-02-28T06:22:47;17.80;92.60
11214;DHT22;5664;48.606;13.456;2023-02-28T06:25:13;17.80;92.70
11214;DHT22;5664;48.606;13.456;2023-02-28T06:27:38;17.70;92.70
11214;DHT22;5664;48.606;13.456;2023-02-28T06:30:04;17.90;92.70
11214;DHT22;5664;48.606;13.456;2023-02-28T06:32:29;17.60;92.60
11214;DHT22;5664;48.606;13.456;2023-02-28T06:34:55;17.80;92.60
11214;DHT22;5664;48.606;13.456;2023-02-28T06:37:22;17.70;92.60
11214;DHT22;5664;48.606;13.456;2023-02-28T06:39:51;17.80;92.60
11214;DHT22;5664;48.606;13.456;2023-02-28T06:42:16;17.80;92.70
11214;DHT22;5664;48.606;13.456;2023-02-28T06:44:42;17.70;92.70
11214;DHT22;5664;48.606;13.456;2023-02-28T06:47:08;17.80;92.80
11214;DHT22;5664;48.606;13.456;2023-02-28T06:49:34;17.90;92.70
11214;DHT22;5664;48.606;13.456;2023-02-28T06:52:00;17.90;92.70
11214;DHT22;5664;48.606;13.456;2023-02-28T06:54:26;17.80;92.50
11214;DHT22;5664;48.606;13.456;2023-02-28T06:56:52;17.90;92.40
11214;DHT22;5664;48.606;13.456;2023-02-28T06:59:19;17.80;92.40
11214;DHT22;5664;48.606;13.456;2023-02-28T07:01:45;17.90;92.30
11214;DHT22;5664;48.606;13.456;2023-02-28T07:04:10;17.90;92.30
11214;DHT22;5664;48.606;13.456;2023-02-28T07:06:36;17.90;92.20
11214;DHT22;5664;48.606;13.456;2023-02-28T07:09:01;17.90;92.20
11214;DHT22;5664;48.606;13.456;2023-02-28T07:11:27;18.00;92.30
11214;DHT22;5664;48.606;13.456;2023-02-28T07:13:53;18.10;92.30
11214;DHT22;5664;48.606;13.456;2023-02-28T07:16:19;18.00;92.10
11214;DHT22;5664;48.606;13.456;2023-02-28T07:18:44;18.00;92.10
11214;DHT22;5664;48.606;13.456;2023-02-28T07:21:10;18.00;92.00
11214;DHT22;5664;48.606;13.456;2023-02-28T07:23:36;18.10;92.10
11214;DHT22;5664;48.606;13.456;2023-02-28T07:26:03;18.20;92.10
11214;DHT22;5664;48.606;13.456;2023-02-28T07:28:29;18.10;92.00
11214;DHT22;5664;48.606;13.456;2023-02-28T07:30:54;18.30;92.10
11214;DHT22;5664;48.606;13.456;2023-02-28T07:33:20;18.10;92.10
11214;DHT22;5664;48.606;13.456;2023-02-28T07:35:45;18.20;92.10
11214;DHT22;5664;48.606;13.456;2023-02-28T07:38:11;18.10;92.10
11214;DHT22;5664;48.606;13.456;2023-02-28T07:40:38;18.10;92.10
11214;DHT22;5664;48.606;13.456;2023-02-28T07:43:04;18.10;92.20
11214;DHT22;5664;48.606;13.456;2023-02-28T07:45:30;18.10;92.20
11214;DHT22;5664;48.606;13.456;2023-02-28T07:47:56;18.10;92.20
11214;DHT22;5664;48.606;13.456;2023-02-28T07:50:22;18.10;92.20
11214;DHT22;5664;48.606;13.456;2023-02-28T07:52:47;18.10;92.30
11214;DHT22;5664;48.606;13.456;2023-02-28T07:55:13;18.10;92.20
11214;DHT22;5664;48.606;13.456;2023-02-28T07:57:39;18.10;92.30
11214;DHT22;5664;48.606;13.456;2023-02-28T08:00:05;18.00;92.40
11214;DHT22;5664;48.606;13.456;2023-02-28T08:02:31;18.00;92.30
11214;DHT22;5664;48.606;13.456;2023-02-28T08:04:57;18.00;92.30
11214;DHT22;5664;48.606;13.456;2023-02-28T08:07:22;18.10;92.40
11214;DHT22;5664;48.606;13.456;2023-02-28T08:09:48;17.90;92.20
11214;DHT22;5664;48.606;13.456;2023-02-28T08:12:13;18.00;92.30
11214;DHT22;5664;48.606;13.456;2023-02-28T08:14:39;18.00;92.40
11214;DHT22;5664;48.606;13.456;2023-02-28T08:17:05;18.10;92.30
11214;DHT22;5664;48.606;13.456;2023-02-28T08:19:30;18.10;92.30
11214;DHT22;5664;48.606;13.456;2023-02-28T08:21:56;17.90;92.30
11214;DHT22;5664;48.606;13.456;2023-02-28T08:24:21;17.90;92.30
11214;DHT22;5664;48.606;13.456;2023-02-28T08:26:47;17.90;92.30
11214;DHT22;5664;48.606;13.456;2023-02-28T08:29:13;17.90;92.40
11214;DHT22;5664;48.606;13.456;2023-02-28T08:31:38;17.90;92.50
11214;DHT22;5664;48.606;13.456;2023-02-28T08:34:05;17.90;92.40
11214;DHT22;5664;48.606;13.456;2023-02-28T08:36:30;18.10;92.50
11214;DHT22;5664;48.606;13.456;2023-02-28T08:38:56;17.90;92.50
11214;DHT22;5664;48.606;13.456;2023-02-28T08:41:22;17.90;92.50
11214;DHT22;5664;48.606;13.456;2023-02-28T08:43:47;18.00;92.50
11214;DHT22;5664;48.606;13.456;2023-02-28T08:46:13;17.80;92.40
11214;DHT22;5664;48.606;13.456;2023-02-28T08:48:39;17.80;92.40
11214;DHT22;5664;48.606;13.456;2023-02-28T08:51:05;17.80;92.50
11214;DHT22;5664;48.606;13.456;2023-02-28T08:53:32;17.80;92.40
11214;DHT22;5664;48.606;13.456;2023-02-28T08:56:04;18.00;92.60
11214;DHT22;5664;48.606;13.456;2023-02-28T08:58:30;17.80;92.50
11214;DHT22;5664;48.606;13.456;2023-02-28T09:00:56;17.90;92.50
11214;DHT22;5664;48.606;13.456;2023-02-28T09:03:22;17.90;92.60
11214;DHT22;5664;48.606;13.456;2023-02-28T09:05:51;18.00;92.80
11214;DHT22;5664;48.606;13.456;2023-02-28T09:08:17;17.80;92.40
11214;DHT22;5664;48.606;13.456;2023-02-28T09:10:42;18.00;92.60
11214;DHT22;5664;48.606;13.456;2023-02-28T09:13:08;18.00;92.50
11214;DHT22;5664;48.606;13.456;2023-02-28T09:15:33;18.00;92.50
11214;DHT22;5664;48.606;13.456;2023-02-28T09:17:59;17.80;92.50
11214;DHT22;5664;48.606;13.456;2023-02-28T09:20:24;17.80;92.50
11214;DHT22;5664;48.606;13.456;2023-02-28T09:22:49;17.80;92.50
11214;DHT22;5664;48.606;13.456;2023-02-28T09:25:15;18.00;92.70
11214;DHT22;5664;48.606;13.456;2023-02-28T09:27:40;17.80;92.60
11214;DHT22;5664;48.606;13.456;2023-02-28T09:30:06;17.80;92.60
11214;DHT22;5664;48.606;13.456;2023-02-28T09:32:32;17.70;92.70
11214;DHT22;5664;48.606;13.456;2023-02-28T09:34:57;17.90;92.80
11214;DHT22;5664;48.606;13.456;2023-02-28T09:37:23;17.90;92.70
11214;DHT22;5664;48.606;13.456;2023-02-28T09:39:48;17.80;92.70
11214;DHT22;5664;48.606;13.456;2023-02-28T09:42:18;17.90;92.70
11214;DHT22;5664;48.606;13.456;2023-02-28T09:44:46;17.70;92.60
11214;DHT22;5664;48.606;13.456;2023-02-28T09:47:21;17.90;92.70
11214;DHT22;5664;48.606;13.456;2023-02-28T09:49:50;17.70;92.50
11214;DHT22;5664;48.606;13.456;2023-02-28T09:52:17;17.70;92.60
11214;DHT22;5664;48.606;13.456;2023-02-28T09:54:44;17.70;92.60
11214;DHT22;5664;48.606;13.456;2023-02-28T09:57:31;18.10;92.60
11214;DHT22;5664;48.606;13.456;2023-02-28T10:00:07;17.60;92.50
11214;DHT22;5664;48.606;13.456;2023-02-28T10:05:49;17.70;92.50
11214;DHT22;5664;48.606;13.456;2023-02-28T10:08:19;17.60;92.60
11214;DHT22;5664;48.606;13.456;2023-02-28T10:10:47;17.60;92.80
11214;DHT22;5664;48.606;13.456;2023-02-28T10:13:17;17.70;92.80
11214;DHT22;5664;48.606;13.456;2023-02-28T10:15:45;17.60;92.70
11214;DHT22;5664;48.606;13.456;2023-02-28T10:18:13;17.80;92.80
11214;DHT22;5664;48.606;13.456;2023-02-28T10:20:39;17.80;92.90
11214;DHT22;5664;48.606;13.456;2023-02-28T10:23:12;17.80;92.80
11214;DHT22;5664;48.606;13.456;2023-02-28T10:25:38;17.60;92.70
11214;DHT22;5664;48.606;13.456;2023-02-28T10:30:32;17.50;92.70
11214;DHT22;5664;48.606;13.456;2023-02-28T10:32:58;17.50;93.80
11214;DHT22;5664;48.606;13.456;2023-02-28T10:35:24;17.70;92.80
11214;DHT22;5664;48.606;13.456;2023-02-28T10:37:52;17.80;92.90
11214;DHT22;5664;48.606;13.456;2023-02-28T10:45:21;17.50;92.80
11214;DHT22;5664;48.606;13.456;2023-02-28T10:55:35;17.50;93.00
11214;DHT22;5664;48.606;13.456;2023-02-28T10:58:01;17.50;93.20
11214;DHT22;5664;48.606;13.456;2023-02-28T11:00:31;17.50;93.20
11214;DHT22;5664;48.606;13.456;2023-02-28T11:02:57;17.70;93.30
11214;DHT22;5664;48.606;13.456;2023-02-28T11:05:32;17.40;93.30
11214;DHT22;5664;48.606;13.456;2023-02-28T11:10:36;17.40;93.20
11214;DHT22;5664;48.606;13.456;2023-02-28T11:13:02;17.40;93.30
11214;DHT22;5664;48.606;13.456;2023-02-28T11:15:32;17.50;94.10
11214;DHT22;5664;48.606;13.456;2023-02-28T11:17:59;17.40;93.20
11214;DHT22;5664;48.606;13.456;2023-02-28T11:20:26;17.60;93.30
11214;DHT22;5664;48.606;13.456;2023-02-28T11:22:53;17.40;93.30
11214;DHT22;5664;48.606;13.456;2023-02-28T11:25:26;17.60;93.30
11214;DHT22;5664;48.606;13.456;2023-02-28T11:27:55;17.40;93.30
11214;DHT22;5664;48.606;13.456;2023-02-28T11:32:49;17.40;93.20
11214;DHT22;5664;48.606;13.456;2023-02-28T11:35:19;17.50;93.50
11214;DHT22;5664;48.606;13.456;2023-02-28T11:37:47;17.50;93.40
11214;DHT22;5664;48.606;13.456;2023-02-28T11:40:14;17.60;93.40
11214;DHT22;5664;48.606;13.456;2023-02-28T11:42:43;17.50;93.40
11214;DHT22;5664;48.606;13.456;2023-02-28T11:45:35;17.50;93.40
11214;DHT22;5664;48.606;13.456;2023-02-28T12:01:08;17.30;93.20
11214;DHT22;5664;48.606;13.456;2023-02-28T12:08:41;17.30;93.10
11214;DHT22;5664;48.606;13.456;2023-02-28T12:11:20;17.30;93.30
11214;DHT22;5664;48.606;13.456;2023-02-28T12:14:15;17.30;93.30
11214;DHT22;5664;48.606;13.456;2023-02-28T12:16:53;17.30;93.40
11214;DHT22;5664;48.606;13.456;2023-02-28T12:19:26;17.30;93.40
11214;DHT22;5664;48.606;13.456;2023-02-28T12:22:11;17.20;93.50
11214;DHT22;5664;48.606;13.456;2023-02-28T12:24:47;17.30;93.50
11214;DHT22;5664;48.606;13.456;2023-02-28T12:27:19;17.20;93.50
11214;DHT22;5664;48.606;13.456;2023-02-28T12:32:56;17.40;93.60
11214;DHT22;5664;48.606;13.456;2023-02-28T12:37:36;17.30;93.50
11214;DHT22;5664;48.606;13.456;2023-02-28T12:40:05;17.30;93.50
11214;DHT22;5664;48.606;13.456;2023-02-28T12:42:32;17.20;93.50
11214;DHT22;5664;48.606;13.456;2023-02-28T12:44:59;17.40;93.50
11214;DHT22;5664;48.606;13.456;2023-02-28T12:47:26;17.40;93.60
11214;DHT22;5664;48.606;13.456;2023-02-28T12:49:53;17.30;93.60
11214;DHT22;5664;48.606;13.456;2023-02-28T12:52:23;17.40;93.60
11214;DHT22;5664;48.606;13.456;2023-02-28T12:55:00;17.40;93.70
11214;DHT22;5664;48.606;13.456;2023-02-28T12:57:42;17.20;93.50
11214;DHT22;5664;48.606;13.456;2023-02-28T13:10:03;17.20;93.70
11214;DHT22;5664;48.606;13.456;2023-02-28T13:12:29;17.20;94.70
11214;DHT22;5664;48.606;13.456;2023-02-28T13:15:06;17.20;93.70
11214;DHT22;5664;48.606;13.456;2023-02-28T13:17:38;17.20;93.70
11214;DHT22;5664;48.606;13.456;2023-02-28T13:20:04;17.20;93.70
11214;DHT22;5664;48.606;13.456;2023-02-28T13:22:40;17.20;93.70
11214;DHT22;5664;48.606;13.456;2023-02-28T13:27:48;17.20;93.70
11214;DHT22;5664;48.606;13.456;2023-02-28T13:35:48;17.10;93.50
11214;DHT22;5664;48.606;13.456;2023-02-28T13:38:21;17.40;93.70
11214;DHT22;5664;48.606;13.456;2023-02-28T13:40:47;17.20;94.00
11214;DHT22;5664;48.606;13.456;2023-02-28T13:43:13;17.30;93.70
11214;DHT22;5664;48.606;13.456;2023-02-28T13:45:44;17.20;93.70
11214;DHT22;5664;48.606;13.456;2023-02-28T13:48:27;17.40;93.70
11214;DHT22;5664;48.606;13.456;2023-02-28T13:50:54;17.20;93.60
11214;DHT22;5664;48.606;13.456;2023-02-28T13:53:54;17.30;93.60
11214;DHT22;5664;48.606;13.456;2023-02-28T13:59:16;17.30;93.40
11214;DHT22;5664;48.606;13.456;2023-02-28T14:07:00;17.20;93.40
11214;DHT22;5664;48.606;13.456;2023-02-28T14:09:30;17.40;93.50
11214;DHT22;5664;48.606;13.456;2023-02-28T14:12:17;17.30;93.40
11214;DHT22;5664;48.606;13.456;2023-02-28T14:17:12;17.50;93.50
11214;DHT22;5664;48.606;13.456;2023-02-28T14:19:39;17.30;93.40
11214;DHT22;5664;48.606;13.456;2023-02-28T14:22:16;17.30;93.40
11214;DHT22;5664;48.606;13.456;2023-02-28T14:37:41;17.70;93.10
11214;DHT22;5664;48.606;13.456;2023-02-28T14:40:12;18.00;93.00
11214;DHT22;5664;48.606;13.456;2023-02-28T14:42:39;17.90;92.90
11214;DHT22;5664;48.606;13.456;2023-02-28T14:45:21;18.10;92.90
11214;DHT22;5664;48.606;13.456;2023-02-28T14:47:47;18.00;92.80
11214;DHT22;5664;48.606;13.456;2023-02-28T14:50:17;18.10;92.80
11214;DHT22;5664;48.606;13.456;2023-02-28T14:52:43;18.20;92.80
11214;DHT22;5664;48.606;13.456;2023-02-28T14:55:17;18.20;92.70
11214;DHT22;5664;48.606;13.456;2023-02-28T14:57:56;18.30;92.60
11214;DHT22;5664;48.606;13.456;2023-02-28T15:02:50;18.40;92.60
11214;DHT22;5664;48.606;13.456;2023-02-28T15:05:20;18.60;92.60
11214;DHT22;5664;48.606;13.456;2023-02-28T15:07:47;18.50;92.60
11214;DHT22;5664;48.606;13.456;2023-02-28T15:10:20;18.60;92.60
11214;DHT22;5664;48.606;13.456;2023-02-28T15:15:19;18.60;92.40
11214;DHT22;5664;48.606;13.456;2023-02-28T15:17:46;18.70;92.40
11214;DHT22;5664;48.606;13.456;2023-02-28T15:20:14;18.70;92.40
11214;DHT22;5664;48.606;13.456;2023-02-28T15:22:40;18.70;92.30
11214;DHT22;5664;48.606;13.456;2023-02-28T15:25:06;18.90;92.40
11214;DHT22;5664;48.606;13.456;2023-02-28T15:27:33;18.80;92.30
11214;DHT22;5664;48.606;13.456;2023-02-28T15:30:04;18.80;92.20
11214;DHT22;5664;48.606;13.456;2023-02-28T15:32:31;18.80;92.20
11214;DHT22;5664;48.606;13.456;2023-02-28T15:34:57;18.80;92.10
11214;DHT22;5664;48.606;13.456;2023-02-28T15:39:52;18.80;92.10
11214;DHT22;5664;48.606;13.456;2023-02-28T15:42:19;18.90;92.10
11214;DHT22;5664;48.606;13.456;2023-02-28T15:44:44;18.90;92.10
11214;DHT22;5664;48.606;13.456;2023-02-28T15:49:45;18.90;92.10
11214;DHT22;5664;48.606;13.456;2023-02-28T15:54:38;18.90;91.90
11214;DHT22;5664;48.606;13.456;2023-02-28T15:57:05;18.90;92.10
11214;DHT22;5664;48.606;13.456;2023-02-28T15:59:33;18.90;92.10
11214;DHT22;5664;48.606;13.456;2023-02-28T16:02:11;18.90;92.20
11214;DHT22;5664;48.606;13.456;2023-02-28T16:04:53;18.90;92.10
11214;DHT22;5664;48.606;13.456;2023-02-28T16:07:19;19.00;92.20
11214;DHT22;5664;48.606;13.456;2023-02-28T16:09:45;19.00;92.10
11214;DHT22;5664;48.606;13.456;2023-02-28T16:12:12;19.00;92.20
11214;DHT22;5664;48.606;13.456;2023-02-28T16:14:38;19.00;92.20
11214;DHT22;5664;48.606;13.456;2023-02-28T16:17:06;19.00;92.30
11214;DHT22;5664;48.606;13.456;2023-02-28T16:19:34;19.00;92.30
11214;DHT22;5664;48.606;13.456;2023-02-28T16:21:59;19.00;92.40
11214;DHT22;5664;48.606;13.456;2023-02-28T16:24:25;19.20;92.40
11214;DHT22;5664;48.606;13.456;2023-02-28T16:26:51;19.00;92.40
11214;DHT22;5664;48.606;13.456;2023-02-28T16:29:30;19.00;92.40
11214;DHT22;5664;48.606;13.456;2023-02-28T16:31:56;19.00;92.30
11214;DHT22;5664;48.606;13.456;2023-02-28T16:34:21;19.00;92.40
11214;DHT22;5664;48.606;13.456;2023-02-28T16:36:47;19.00;92.50
11214;DHT22;5664;48.606;13.456;2023-02-28T16:39:13;19.00;92.50
11214;DHT22;5664;48.606;13.456;2023-02-28T16:41:39;19.00;92.50
11214;DHT22;5664;48.606;13.456;2023-02-28T16:44:09;19.20;92.40
11214;DHT22;5664;48.606;13.456;2023-02-28T16:46:35;19.00;92.30
11214;DHT22;5664;48.606;13.456;2023-02-28T16:49:01;19.00;92.40
11214;DHT22;5664;48.606;13.456;2023-02-28T16:51:27;19.00;92.30
11214;DHT22;5664;48.606;13.456;2023-02-28T16:53:52;19.00;92.30
11214;DHT22;5664;48.606;13.456;2023-02-28T16:56:22;19.00;92.30
11214;DHT22;5664;48.606;13.456;2023-02-28T16:58:48;19.00;92.30
11214;DHT22;5664;48.606;13.456;2023-02-28T17:01:14;19.00;92.30
11214;DHT22;5664;48.606;13.456;2023-02-28T17:03:40;19.10;92.70
11214;DHT22;5664;48.606;13.456;2023-02-28T17:06:08;18.90;92.30
11214;DHT22;5664;48.606;13.456;2023-02-28T17:08:48;19.00;92.30
11214;DHT22;5664;48.606;13.456;2023-02-28T17:11:14;19.00;92.40
11214;DHT22;5664;48.606;13.456;2023-02-28T17:13:40;19.00;92.40
11214;DHT22;5664;48.606;13.456;2023-02-28T17:16:05;19.00;92.50
11214;DHT22;5664;48.606;13.456;2023-02-28T17:18:31;19.00;92.50
11214;DHT22;5664;48.606;13.456;2023-02-28T17:21:01;19.00;92.60
11214;DHT22;5664;48.606;13.456;2023-02-28T17:23:27;19.00;92.50
11214;DHT22;5664;48.606;13.456;2023-02-28T17:25:52;19.00;92.60
11214;DHT22;5664;48.606;13.456;2023-02-28T17:28:21;19.00;92.60
11214;DHT22;5664;48.606;13.456;2023-02-28T17:30:47;19.20;92.70
11214;DHT22;5664;48.606;13.456;2023-02-28T17:33:13;19.00;92.60
11214;DHT22;5664;48.606;13.456;2023-02-28T17:35:39;19.00;92.60
11214;DHT22;5664;48.606;13.456;2023-02-28T17:38:04;19.00;92.60
11214;DHT22;5664;48.606;13.456;2023-02-28T17:40:30;19.10;92.60
11214;DHT22;5664;48.606;13.456;2023-02-28T17:42:55;19.00;92.60
11214;DHT22;5664;48.606;13.456;2023-02-28T17:45:21;19.20;92.60
11214;DHT22;5664;48.606;13.456;2023-02-28T17:47:48;19.10;92.60
11214;DHT22;5664;48.606;13.456;2023-02-28T17:50:15;19.20;92.70